Time;durP1;ratioP1;P1;durP2;ratioP2;P2;SDS_P1;SDS_P2;PMS_P1;PMS_P2;Temp;Humidity;BMP_temperature;BMP_pressure;BME280_temperature;BME280_humidity;BME280_pressure;Samples;Min_cycle;Max_cycle;Signal;HPM_P1;HPM_P2
2023/10/23 00:02:18;;;;;;;7.72;7.03;;;;;;;8.83;100.00;101084.53;5003797;28;20095;-70
2023/10/23 00:04:44;;;;;;;8.43;6.90;;;;;;;8.80;100.00;101085.50;5004781;28;20473;-69
2023/10/23 00:07:09;;;;;;;9.25;7.07;;;;;;;8.76;100.00;101088.34;5003093;28;20544;-70
2023/10/23 00:09:34;;;;;;;8.38;6.80;;;;;;;8.72;100.00;101085.78;4984375;28;20504;-69
2023/10/23 00:12:00;;;;;;;9.13;6.90;;;;;;;8.63;100.00;101088.81;5002860;28;20173;-70
2023/10/23 00:14:25;;;;;;;7.95;7.13;;;;;;;8.66;100.00;101095.81;4997704;28;20057;-69
2023/10/23 00:16:50;;;;;;;9.75;7.40;;;;;;;8.59;100.00;101089.00;4985387;28;20408;-69
2023/10/23 00:19:16;;;;;;;8.68;7.03;;;;;;;8.59;100.00;101097.81;5003294;28;20131;-69
2023/10/23 00:21:42;;;;;;;8.13;6.63;;;;;;;8.52;100.00;101090.16;4986078;28;20041;-69
2023/10/23 00:24:08;;;;;;;7.18;6.47;;;;;;;8.51;100.00;101097.25;5000113;28;20038;-69
2023/10/23 00:26:34;;;;;;;8.48;6.90;;;;;;;8.47;100.00;101096.50;5001873;28;20476;-70
2023/10/23 00:29:01;;;;;;;7.25;6.45;;;;;;;8.43;100.00;101091.34;5000931;28;20037;-69
2023/10/23 00:31:27;;;;;;;8.95;7.00;;;;;;;8.41;100.00;101090.56;5003851;28;20052;-70
2023/10/23 00:33:52;;;;;;;9.25;7.15;;;;;;;8.37;100.00;101088.97;5004016;28;20116;-70
2023/10/23 00:36:18;;;;;;;9.80;7.47;;;;;;;8.29;100.00;101086.56;4977495;28;20296;-69
2023/10/23 00:38:43;;;;;;;8.63;7.72;;;;;;;8.32;100.00;101093.50;5003562;28;20415;-69
2023/10/23 00:41:08;;;;;;;8.93;7.35;;;;;;;8.30;100.00;101090.94;5002166;28;20056;-69
2023/10/23 00:43:34;;;;;;;10.90;8.13;;;;;;;8.29;100.00;101093.66;5001306;28;20030;-69
2023/10/23 00:46:00;;;;;;;13.68;8.43;;;;;;;8.27;100.00;101099.00;4999396;28;20121;-69
2023/10/23 00:48:27;;;;;;;9.40;7.32;;;;;;;8.26;100.00;101101.72;4982538;28;20469;-69
2023/10/23 00:50:58;;;;;;;9.38;7.47;;;;;;;8.26;100.00;101102.56;4999447;28;20054;-69
2023/10/23 00:53:27;;;;;;;9.40;7.90;;;;;;;8.18;100.00;101099.34;5001648;28;20041;-69
2023/10/23 00:55:54;;;;;;;9.90;8.13;;;;;;;8.16;100.00;101098.53;5002634;28;20410;-69
2023/10/23 00:58:20;;;;;;;14.18;8.95;;;;;;;8.10;100.00;101094.31;4999872;28;20097;-69
2023/10/23 01:00:48;;;;;;;10.27;7.43;;;;;;;8.07;100.00;101097.09;4997032;28;20132;-72
2023/10/23 01:03:14;;;;;;;9.88;8.05;;;;;;;8.07;100.00;101099.75;4997362;28;20041;-70
2023/10/23 01:05:39;;;;;;;11.88;8.68;;;;;;;8.11;100.00;101103.13;4999258;28;20458;-73
2023/10/23 01:08:05;;;;;;;12.15;9.05;;;;;;;8.08;100.00;101100.59;4993678;28;20308;-69
2023/10/23 01:10:32;;;;;;;11.23;8.70;;;;;;;8.14;100.00;101110.97;4995295;28;20564;-71
2023/10/23 01:12:57;;;;;;;12.10;8.82;;;;;;;8.06;100.00;101113.03;5001063;28;20117;-70
2023/10/23 01:15:23;;;;;;;11.00;8.27;;;;;;;8.09;100.00;101123.53;5000263;28;20116;-70
2023/10/23 01:17:51;;;;;;;15.73;8.82;;;;;;;8.07;100.00;101120.06;5002789;28;20026;-69
2023/10/23 01:20:17;;;;;;;11.13;8.30;;;;;;;7.96;100.00;101110.72;4997480;28;20038;-69
2023/10/23 01:22:43;;;;;;;10.50;8.80;;;;;;;7.97;100.00;101115.09;4993933;28;20084;-72
2023/10/23 01:25:18;;;;;;;11.40;9.10;;;;;;;7.92;100.00;101116.19;4998887;28;20042;-69
2023/10/23 01:27:43;;;;;;;9.55;8.52;;;;;;;7.96;100.00;101123.97;5001611;28;20163;-69
2023/10/23 01:30:10;;;;;;;13.30;8.98;;;;;;;7.86;100.00;101117.28;5000953;28;20045;-70
2023/10/23 01:32:36;;;;;;;11.98;9.40;;;;;;;7.86;100.00;101114.63;5001355;28;20645;-70
2023/10/23 01:35:02;;;;;;;10.88;9.18;;;;;;;7.83;100.00;101106.78;5001762;28;20030;-68
2023/10/23 01:37:27;;;;;;;14.13;9.25;;;;;;;7.81;100.00;101108.59;4995151;28;20029;-68
2023/10/23 01:39:53;;;;;;;11.60;9.43;;;;;;;7.77;100.00;101104.31;4999267;28;20033;-69
2023/10/23 01:42:18;;;;;;;10.88;8.93;;;;;;;7.76;100.00;101105.25;4999083;28;20025;-69
2023/10/23 01:44:44;;;;;;;9.80;8.55;;;;;;;7.74;100.00;101110.63;4999499;28;20109;-69
2023/10/23 01:47:09;;;;;;;10.95;9.15;;;;;;;7.70;100.00;101109.00;4999280;28;20508;-69
2023/10/23 01:49:34;;;;;;;10.13;9.02;;;;;;;7.66;100.00;101109.16;5001324;28;20499;-70
2023/10/23 01:52:00;;;;;;;12.85;8.70;;;;;;;7.65;100.00;101123.31;5000768;28;20104;-68
2023/10/23 01:54:25;;;;;;;10.82;8.18;;;;;;;7.62;100.00;101116.34;5000728;28;20044;-70
2023/10/23 01:56:51;;;;;;;13.95;8.63;;;;;;;7.58;100.00;101108.56;5001210;28;20124;-69
2023/10/23 01:59:17;;;;;;;11.48;8.32;;;;;;;7.53;100.00;101097.25;4997692;28;20025;-70
2023/10/23 02:01:42;;;;;;;10.13;8.07;;;;;;;7.47;100.00;101090.38;5000669;28;20094;-71
2023/10/23 02:04:08;;;;;;;8.63;7.72;;;;;;;7.44;100.00;101099.31;4979557;28;20113;-69
2023/10/23 02:06:33;;;;;;;10.15;8.45;;;;;;;7.51;100.00;101104.38;5001396;28;20122;-67
2023/10/23 02:08:59;;;;;;;10.60;8.23;;;;;;;7.51;100.00;101107.88;4982011;28;20124;-69
2023/10/23 02:11:25;;;;;;;9.57;8.02;;;;;;;7.45;100.00;101108.97;4994856;28;20034;-70
2023/10/23 02:13:50;;;;;;;11.48;8.02;;;;;;;7.47;100.00;101108.91;4996929;28;20288;-68
2023/10/23 02:16:15;;;;;;;11.35;7.82;;;;;;;7.45;100.00;101116.06;5001110;28;20061;-70
2023/10/23 02:18:41;;;;;;;10.40;7.68;;;;;;;7.45;100.00;101110.75;5001992;28;20057;-70
2023/10/23 02:21:06;;;;;;;8.27;7.38;;;;;;;7.40;100.00;101120.66;5000948;28;20117;-69
2023/10/23 02:23:32;;;;;;;9.07;7.50;;;;;;;7.33;100.00;101122.63;4999644;28;20404;-70
2023/10/23 02:25:57;;;;;;;10.75;7.43;;;;;;;7.28;100.00;101121.91;4999667;28;20032;-69
2023/10/23 02:28:23;;;;;;;10.90;7.50;;;;;;;7.26;100.00;101123.72;4984065;28;20480;-70
2023/10/23 02:30:48;;;;;;;7.63;6.78;;;;;;;7.19;100.00;101138.06;5000440;28;20477;-68
2023/10/23 02:33:13;;;;;;;9.65;7.10;;;;;;;7.19;100.00;101132.78;5001253;28;20452;-69
2023/10/23 02:35:39;;;;;;;8.95;7.10;;;;;;;7.26;100.00;101138.75;4999389;28;20025;-70
2023/10/23 02:38:04;;;;;;;9.90;7.25;;;;;;;7.17;100.00;101135.47;5000103;28;20434;-70
2023/10/23 02:40:30;;;;;;;9.25;7.05;;;;;;;7.15;100.00;101133.81;4980076;28;20120;-68
2023/10/23 02:42:55;;;;;;;8.90;6.95;;;;;;;7.18;100.00;101141.63;4996935;28;20036;-69
2023/10/23 02:45:21;;;;;;;7.85;7.03;;;;;;;7.14;100.00;101129.41;4996233;28;20030;-68
2023/10/23 02:47:46;;;;;;;10.73;7.60;;;;;;;7.08;100.00;101126.97;4999956;28;20080;-69
2023/10/23 02:50:11;;;;;;;10.48;7.22;;;;;;;7.09;100.00;101126.91;5000556;28;20064;-69
2023/10/23 02:52:37;;;;;;;9.32;7.88;;;;;;;7.07;100.00;101136.69;5001248;28;20018;-70
2023/10/23 02:55:04;;;;;;;9.73;7.35;;;;;;;7.06;100.00;101134.94;4982484;28;20029;-69
2023/10/23 02:57:29;;;;;;;9.75;7.75;;;;;;;7.01;100.00;101136.88;5001157;28;20137;-71
2023/10/23 02:59:55;;;;;;;9.38;7.90;;;;;;;6.96;100.00;101131.72;5000863;28;20036;-69
2023/10/23 03:02:21;;;;;;;8.13;7.03;;;;;;;6.95;100.00;101130.00;5000591;28;20034;-68
2023/10/23 03:04:46;;;;;;;8.77;7.47;;;;;;;6.91;100.00;101128.38;4983271;28;20530;-69
2023/10/23 03:07:12;;;;;;;9.65;7.88;;;;;;;6.90;100.00;101134.59;5005989;28;20064;-69
2023/10/23 03:09:37;;;;;;;9.48;7.95;;;;;;;6.90;100.00;101134.59;5004644;28;20026;-70
2023/10/23 03:12:03;;;;;;;10.25;7.72;;;;;;;6.88;100.00;101135.53;5003431;28;20025;-69
2023/10/23 03:14:29;;;;;;;9.05;7.30;;;;;;;6.87;100.00;101134.66;5000627;28;20049;-68
2023/10/23 03:16:54;;;;;;;9.40;8.07;;;;;;;6.83;100.00;101140.09;5003443;28;20029;-69
2023/10/23 03:19:22;;;;;;;8.27;7.45;;;;;;;6.79;100.00;101131.41;5003534;28;20061;-70
2023/10/23 03:21:48;;;;;;;7.65;6.80;;;;;;;6.75;100.00;101129.75;5003655;28;20117;-68
2023/10/23 03:24:13;;;;;;;8.00;6.97;;;;;;;6.76;100.00;101131.47;5004310;28;20515;-70
2023/10/23 03:26:38;;;;;;;8.70;7.50;;;;;;;6.76;100.00;101141.19;5004196;28;20116;-70
2023/10/23 03:29:04;;;;;;;10.45;7.82;;;;;;;6.70;100.00;101142.25;5003395;28;20034;-70
2023/10/23 03:31:32;;;;;;;9.30;6.40;;;;;;;6.69;100.00;101125.53;5002105;28;20026;-69
2023/10/23 03:33:58;;;;;;;12.23;7.38;;;;;;;6.63;100.00;101124.84;4999231;28;20026;-72
2023/10/23 03:36:23;;;;;;;9.23;6.72;;;;;;;6.64;100.00;101137.13;5001651;28;20041;-70
2023/10/23 03:38:48;;;;;;;8.70;7.57;;;;;;;6.64;100.00;101142.44;4984998;28;20032;-68
2023/10/23 03:41:14;;;;;;;10.05;7.22;;;;;;;6.58;100.00;101147.91;5000214;28;20097;-68
2023/10/23 03:43:40;;;;;;;8.70;7.07;;;;;;;6.59;100.00;101144.34;4998166;28;20062;-71
2023/10/23 03:46:05;;;;;;;9.23;6.85;;;;;;;6.60;100.00;101146.06;5001820;28;20038;-69
2023/10/23 03:48:34;;;;;;;12.20;7.10;;;;;;;6.56;100.00;101137.34;4996033;28;20511;-69
2023/10/23 03:51:00;;;;;;;9.32;7.05;;;;;;;6.52;100.00;101142.78;5000329;28;20056;-68
2023/10/23 03:53:26;;;;;;;7.63;6.38;;;;;;;6.53;100.00;101149.84;5001657;28;20034;-69
2023/10/23 03:55:51;;;;;;;9.93;6.97;;;;;;;6.48;100.00;101142.91;5000860;28;20480;-69
2023/10/23 03:58:16;;;;;;;8.68;6.60;;;;;;;6.42;100.00;101143.06;4982931;28;20068;-70
2023/10/23 04:00:42;;;;;;;10.77;7.07;;;;;;;6.41;100.00;101137.81;4999764;28;20030;-70
2023/10/23 04:03:07;;;;;;;10.02;7.22;;;;;;;6.42;100.00;101145.72;4983532;28;20030;-69
2023/10/23 04:05:39;;;;;;;7.60;6.50;;;;;;;6.35;100.00;101145.91;5001263;28;20108;-69
2023/10/23 04:08:04;;;;;;;8.10;6.93;;;;;;;6.27;100.00;101148.81;5001682;28;20025;-70
2023/10/23 04:10:29;;;;;;;7.38;6.68;;;;;;;6.33;100.00;101145.97;5002697;28;20297;-68
2023/10/23 04:12:55;;;;;;;10.38;7.15;;;;;;;6.27;100.00;101148.81;5002245;28;20107;-68
2023/10/23 04:15:20;;;;;;;9.50;6.70;;;;;;;6.25;100.00;101147.97;5003551;28;20477;-68
2023/10/23 04:17:48;;;;;;;9.65;6.85;;;;;;;6.21;100.00;101149.81;5001788;28;20022;-70
2023/10/23 04:20:14;;;;;;;9.32;6.90;;;;;;;6.18;100.00;101149.03;5003707;28;20042;-69
2023/10/23 04:22:39;;;;;;;10.57;7.10;;;;;;;6.18;100.00;101149.03;5003861;28;20276;-68
2023/10/23 04:25:05;;;;;;;10.45;7.78;;;;;;;6.22;100.00;101153.31;5001507;28;20308;-69
2023/10/23 04:27:30;;;;;;;8.93;6.95;;;;;;;6.17;100.00;101152.59;5001991;28;20056;-69
2023/10/23 04:29:59;;;;;;;16.70;7.88;;;;;;;5.98;100.00;101150.47;4998763;28;20400;-69
2023/10/23 04:32:24;;;;;;;7.45;6.63;;;;;;;6.16;100.00;101154.38;5001465;28;20021;-69
2023/10/23 04:34:50;;;;;;;8.45;7.10;;;;;;;6.18;100.00;101149.91;5000572;28;20400;-69
2023/10/23 04:37:18;;;;;;;9.88;6.70;;;;;;;6.20;100.00;101157.81;5000897;28;20590;-70
2023/10/23 04:39:44;;;;;;;7.80;6.80;;;;;;;6.06;100.00;101159.94;4980579;28;20511;-70
2023/10/23 04:42:09;;;;;;;7.93;6.70;;;;;;;6.11;100.00;101153.66;5001347;28;20036;-69
2023/10/23 04:44:34;;;;;;;9.73;7.18;;;;;;;6.13;100.00;101156.22;5000805;28;20037;-68
2023/10/23 04:47:00;;;;;;;7.63;6.80;;;;;;;6.10;100.00;101151.88;4999179;28;20136;-69
2023/10/23 04:49:25;;;;;;;7.53;6.50;;;;;;;6.09;100.00;101154.59;4999893;28;20176;-68
2023/10/23 04:51:51;;;;;;;7.20;6.43;;;;;;;6.05;100.00;101152.94;4996627;28;20092;-67
2023/10/23 04:54:16;;;;;;;9.57;7.18;;;;;;;6.04;100.00;101148.56;5001549;28;20036;-69
2023/10/23 04:56:41;;;;;;;9.95;7.20;;;;;;;6.00;100.00;101142.50;5001156;28;20022;-69
2023/10/23 04:59:07;;;;;;;8.52;7.57;;;;;;;5.98;100.00;101145.19;5001948;28;20492;-68
2023/10/23 05:01:33;;;;;;;8.02;7.22;;;;;;;5.97;100.00;101145.22;5000921;28;20049;-69
2023/10/23 05:03:59;;;;;;;9.35;6.97;;;;;;;5.96;100.00;101144.34;4999535;28;20368;-68
2023/10/23 05:06:28;;;;;;;8.35;7.15;;;;;;;5.95;100.00;101149.69;4998802;28;20520;-70
2023/10/23 05:08:53;;;;;;;11.32;7.18;;;;;;;5.93;100.00;101154.97;5001414;28;20786;-68
2023/10/23 05:11:18;;;;;;;9.40;6.82;;;;;;;5.86;100.00;101152.53;5001651;28;20086;-68
2023/10/23 05:13:46;;;;;;;8.02;6.55;;;;;;;5.84;100.00;101147.28;5002217;28;20259;-69
2023/10/23 05:16:17;;;;;;;7.00;6.28;;;;;;;5.78;100.00;101136.88;5002711;28;20088;-69
2023/10/23 05:18:43;;;;;;;7.72;6.45;;;;;;;5.84;100.00;101143.78;4998737;28;20030;-69
2023/10/23 05:21:12;;;;;;;9.73;6.63;;;;;;;5.79;100.00;101141.25;5001868;28;20036;-69
2023/10/23 05:23:39;;;;;;;9.93;6.53;;;;;;;5.75;100.00;101134.31;5002478;28;20060;-68
2023/10/23 05:26:04;;;;;;;6.63;5.93;;;;;;;5.72;100.00;101139.69;5002910;28;20108;-68
2023/10/23 05:28:31;;;;;;;7.25;6.53;;;;;;;5.73;100.00;101138.78;5001971;28;20664;-69
2023/10/23 05:30:57;;;;;;;9.13;7.00;;;;;;;5.65;100.00;101133.69;4996467;28;20301;-69
2023/10/23 05:33:23;;;;;;;7.88;6.20;;;;;;;5.71;100.00;101137.94;4996915;28;20025;-69
2023/10/23 05:35:48;;;;;;;9.70;6.60;;;;;;;5.64;100.00;101136.38;5000008;28;20269;-70
2023/10/23 05:38:14;;;;;;;7.90;6.10;;;;;;;5.65;100.00;101143.41;5000209;28;20103;-69
2023/10/23 05:40:39;;;;;;;7.55;6.13;;;;;;;5.65;100.00;101143.41;5000684;28;20500;-70
2023/10/23 05:43:04;;;;;;;9.30;6.45;;;;;;;5.61;100.00;101152.31;5001975;28;20113;-69
2023/10/23 05:45:30;;;;;;;8.82;7.40;;;;;;;5.60;100.00;101143.53;4999654;28;20488;-69
2023/10/23 05:47:55;;;;;;;8.90;7.40;;;;;;;5.59;100.00;101149.69;4999564;28;20106;-68
2023/10/23 05:50:20;;;;;;;8.70;7.03;;;;;;;5.52;100.00;101152.50;4995500;28;20052;-68
2023/10/23 05:52:46;;;;;;;8.73;7.90;;;;;;;5.53;100.00;101141.06;4999261;28;20030;-71
2023/10/23 05:55:11;;;;;;;9.00;7.35;;;;;;;5.52;100.00;101152.50;5001362;28;20353;-69
2023/10/23 05:57:36;;;;;;;8.45;6.35;;;;;;;5.48;100.00;101155.25;4977862;28;20033;-70
2023/10/23 06:00:08;;;;;;;8.27;6.75;;;;;;;5.47;100.00;101161.41;4998605;28;20038;-70
2023/10/23 06:02:34;;;;;;;7.45;6.80;;;;;;;5.47;100.00;101156.13;4992093;28;20034;-68
2023/10/23 06:04:59;;;;;;;7.13;6.43;;;;;;;5.41;100.00;101137.81;4974439;28;20140;-70
2023/10/23 06:07:24;;;;;;;7.00;6.20;;;;;;;5.49;100.00;101158.75;4999274;28;20416;-70
2023/10/23 06:09:50;;;;;;;9.43;7.18;;;;;;;5.47;100.00;101153.50;4997953;28;20113;-69
2023/10/23 06:12:15;;;;;;;7.63;6.80;;;;;;;5.45;100.00;101154.47;5002504;28;20021;-69
2023/10/23 06:14:41;;;;;;;8.57;7.00;;;;;;;5.43;100.00;101157.16;4998769;28;20108;-71
2023/10/23 06:17:06;;;;;;;8.40;6.43;;;;;;;5.43;100.00;101156.25;4998481;28;20112;-68
2023/10/23 06:19:32;;;;;;;9.30;6.90;;;;;;;5.43;100.00;101145.69;5002290;28;20049;-69
2023/10/23 06:21:57;;;;;;;10.15;6.70;;;;;;;5.45;100.00;101149.19;4993136;28;20513;-69
2023/10/23 06:24:23;;;;;;;8.38;7.00;;;;;;;5.47;100.00;101145.56;4999267;28;20045;-70
2023/10/23 06:26:48;;;;;;;9.27;7.13;;;;;;;5.48;100.00;101149.97;5001507;28;20089;-70
2023/10/23 06:29:14;;;;;;;7.75;7.00;;;;;;;5.47;100.00;101145.56;4996153;28;20404;-70
2023/10/23 06:31:39;;;;;;;7.80;7.00;;;;;;;5.49;100.00;101154.34;5001567;28;20026;-70
2023/10/23 06:34:04;;;;;;;8.95;7.10;;;;;;;5.52;100.00;101155.16;4982498;28;20041;-69
2023/10/23 06:36:33;;;;;;;8.55;7.75;;;;;;;5.57;100.00;101153.28;5001611;28;20030;-70
2023/10/23 06:38:58;;;;;;;11.68;8.20;;;;;;;5.61;100.00;101161.09;5002308;28;20020;-70
2023/10/23 06:41:24;;;;;;;10.18;8.52;;;;;;;5.59;100.00;101151.47;5004552;28;20042;-69
2023/10/23 06:43:49;;;;;;;12.27;9.45;;;;;;;5.67;100.00;101154.78;5001035;28;20053;-71
2023/10/23 06:46:14;;;;;;;10.60;8.82;;;;;;;5.74;100.00;101154.59;4999131;28;20092;-69
2023/10/23 06:48:44;;;;;;;10.15;8.82;;;;;;;5.77;100.00;101143.09;5004538;28;20022;-70
2023/10/23 06:51:10;;;;;;;12.23;9.93;;;;;;;5.79;100.00;101151.81;4998993;28;20037;-70
2023/10/23 06:53:35;;;;;;;12.48;10.77;;;;;;;5.83;100.00;101148.19;4979604;28;20036;-70
2023/10/23 06:56:01;;;;;;;12.07;10.25;;;;;;;5.82;100.00;101145.59;5005284;28;20026;-69
2023/10/23 06:58:26;;;;;;;13.63;10.07;;;;;;;5.88;100.00;101140.16;4985955;28;20333;-70
2023/10/23 07:00:52;;;;;;;11.30;10.00;;;;;;;5.85;100.00;101143.75;5003693;28;20465;-70
2023/10/23 07:03:17;;;;;;;11.73;10.45;;;;;;;5.92;100.00;101150.63;5001315;28;20472;-70
2023/10/23 07:05:43;;;;;;;13.73;10.27;;;;;;;5.96;100.00;101148.75;5002438;28;20039;-70
2023/10/23 07:08:08;;;;;;;10.85;9.75;;;;;;;5.97;100.00;101153.13;4983391;28;20029;-69
2023/10/23 07:10:38;;;;;;;11.85;9.77;;;;;;;6.04;100.00;101152.06;4995416;28;20537;-71
2023/10/23 07:13:03;;;;;;;11.88;9.68;;;;;;;6.09;100.00;101147.53;5001286;28;20192;-70
2023/10/23 07:15:33;;;;;;;12.35;10.02;;;;;;;6.15;100.00;101134.16;5002818;28;20101;-70
2023/10/23 07:17:59;;;;;;;11.52;9.88;;;;;;;6.26;100.00;101140.91;5002951;28;20205;-68
2023/10/23 07:20:24;;;;;;;12.00;9.82;;;;;;;6.32;100.00;101143.38;5003052;28;20037;-69
2023/10/23 07:22:50;;;;;;;11.95;10.45;;;;;;;6.41;100.00;101148.41;5000806;28;20496;-68
2023/10/23 07:25:15;;;;;;;13.73;10.93;;;;;;;6.47;100.00;101153.50;5002562;28;20500;-68
2023/10/23 07:27:41;;;;;;;12.05;10.35;;;;;;;6.54;100.00;101143.63;5002843;28;20033;-70
2023/10/23 07:30:07;;;;;;;14.18;12.20;;;;;;;6.59;100.00;101154.94;4995323;28;20092;-69
2023/10/23 07:32:34;;;;;;;22.00;15.23;;;;;;;6.66;100.00;101149.41;4999116;28;20030;-70
2023/10/23 07:35:00;;;;;;;20.20;16.05;;;;;;;6.76;100.00;101150.00;4996704;28;20152;-69
2023/10/23 07:37:27;;;;;;;19.88;15.10;;;;;;;6.82;100.00;101155.13;5000231;28;20565;-69
2023/10/23 07:39:52;;;;;;;20.20;17.23;;;;;;;6.90;100.00;101157.53;5000193;28;20029;-68
2023/10/23 07:42:17;;;;;;;20.00;15.93;;;;;;;6.98;100.00;101158.13;5002371;28;20029;-69
2023/10/23 07:44:43;;;;;;;17.10;15.40;;;;;;;7.05;100.00;101154.41;5004605;28;20084;-68
2023/10/23 07:47:08;;;;;;;24.27;17.52;;;;;;;7.18;100.00;101157.53;4984745;28;20089;-69
2023/10/23 07:49:33;;;;;;;19.52;16.50;;;;;;;7.25;100.00;101159.06;4997972;28;20512;-71
2023/10/23 07:52:03;;;;;;;16.95;14.57;;;;;;;7.35;100.00;101156.97;5002082;28;20290;-70
2023/10/23 07:54:31;;;;;;;20.95;14.38;;;;;;;7.44;100.00;101152.28;5004440;28;20029;-68
2023/10/23 07:56:56;;;;;;;23.65;18.00;;;;;;;7.53;100.00;101152.88;5000427;28;20033;-69
2023/10/23 07:59:23;;;;;;;25.08;18.52;;;;;;;7.64;100.00;101148.94;5003019;28;20056;-70
2023/10/23 08:01:49;;;;;;;23.95;16.83;;;;;;;7.77;100.00;101144.06;4997517;28;20057;-71
2023/10/23 08:04:15;;;;;;;19.13;14.40;;;;;;;7.86;100.00;101138.47;4999671;28;20059;-70
2023/10/23 08:06:41;;;;;;;25.17;17.60;;;;;;;8.01;100.00;101138.84;4980420;28;20032;-68
2023/10/23 08:09:06;;;;;;;22.20;16.77;;;;;;;8.10;100.00;101135.88;4999625;28;20041;-70
2023/10/23 08:11:32;;;;;;;19.55;16.17;;;;;;;8.21;100.00;101134.56;4998943;28;20056;-67
2023/10/23 08:13:58;;;;;;;12.43;10.75;;;;;;;8.31;100.00;101126.25;4995224;28;20107;-70
2023/10/23 08:16:23;;;;;;;11.20;10.00;;;;;;;8.39;100.00;101137.50;4998137;28;20089;-69
2023/10/23 08:18:49;;;;;;;12.90;9.32;;;;;;;8.48;100.00;101139.78;4990990;28;20029;-69
2023/10/23 08:21:15;;;;;;;11.15;9.35;;;;;;;8.53;100.00;101139.63;4998897;28;20273;-68
2023/10/23 08:23:43;;;;;;;15.38;9.40;;;;;;;8.60;100.00;101136.69;4997203;28;20034;-69
2023/10/23 08:26:08;;;;;;;13.45;9.18;;;;;;;8.71;100.00;101139.81;5001285;28;20377;-68
2023/10/23 08:28:34;;;;;;;11.75;9.65;;;;;;;8.84;100.00;101144.63;5002862;28;20113;-70
2023/10/23 08:30:59;;;;;;;13.13;9.30;;;;;;;9.00;100.00;101151.06;4998159;28;20026;-69
2023/10/23 08:33:24;;;;;;;12.52;8.73;;;;;;;8.98;100.00;101137.84;4997534;28;20068;-68
2023/10/23 08:35:50;;;;;;;11.38;8.82;;;;;;;9.20;100.00;101142.31;4996474;28;20034;-70
2023/10/23 08:38:18;;;;;;;20.40;13.10;;;;;;;9.36;100.00;101147.84;5000485;28;20040;-69
2023/10/23 08:40:43;;;;;;;14.98;11.45;;;;;;;9.47;100.00;101143.84;5002984;28;20480;-68
2023/10/23 08:43:09;;;;;;;14.43;10.68;;;;;;;9.58;100.00;101151.38;5001602;28;20066;-69
2023/10/23 08:45:34;;;;;;;9.38;8.27;;;;;;;9.65;100.00;101138.69;5002046;28;20132;-69
2023/10/23 08:48:00;;;;;;;14.98;9.50;;;;;;;9.70;100.00;101134.06;5000363;28;20139;-69
2023/10/23 08:50:25;;;;;;;13.20;8.63;;;;;;;9.82;100.00;101136.16;5002629;28;20026;-70
2023/10/23 08:52:59;;;;;;;11.55;8.32;;;;;;;9.84;100.00;101136.09;5000188;28;20036;-67
2023/10/23 08:55:28;;;;;;;10.95;7.57;;;;;;;9.98;100.00;101131.91;5000524;28;20038;-69
2023/10/23 08:57:56;;;;;;;13.55;8.55;;;;;;;10.10;100.00;101134.97;4999222;28;20255;-69
2023/10/23 09:00:24;;;;;;;10.85;8.23;;;;;;;10.18;100.00;101132.84;4984653;28;20045;-68
2023/10/23 09:02:51;;;;;;;14.00;9.15;;;;;;;10.23;100.00;101128.16;4999758;28;20033;-69
2023/10/23 09:05:17;;;;;;;11.20;7.90;;;;;;;10.31;100.00;101128.72;4994799;28;20041;-68
2023/10/23 09:07:43;;;;;;;12.77;8.25;;;;;;;10.44;100.00;101124.56;4999048;28;20037;-69
2023/10/23 09:10:09;;;;;;;11.82;7.60;;;;;;;10.59;100.00;101114.16;4994954;28;20040;-70
2023/10/23 09:12:35;;;;;;;14.40;7.72;;;;;;;10.75;100.00;101123.16;5000185;28;20034;-70
2023/10/23 09:15:14;;;;;;;15.35;7.50;;;;;;;10.84;100.00;101122.72;5003028;28;20053;-69
2023/10/23 09:17:40;;;;;;;14.13;7.90;;;;;;;10.90;100.00;101111.75;5000770;28;20497;-70
2023/10/23 09:20:27;;;;;;;12.07;7.13;;;;;;;11.10;100.00;101113.47;4978588;28;20297;-69
2023/10/23 09:22:53;;;;;;;11.15;6.90;;;;;;;11.23;100.00;101111.06;4994759;28;20025;-68
2023/10/23 09:25:23;;;;;;;13.07;6.78;;;;;;;11.36;100.00;101108.66;5002501;28;20538;-70
2023/10/23 09:27:49;;;;;;;12.90;6.85;;;;;;;11.38;100.00;101089.00;4997417;28;20216;-70
2023/10/23 09:30:21;;;;;;;9.10;6.10;;;;;;;11.50;100.00;101102.66;4995983;28;20034;-70
2023/10/23 09:32:51;;;;;;;10.38;5.60;;;;;;;11.53;100.00;101097.13;4992125;28;20406;-71
2023/10/23 09:35:17;;;;;;;12.82;5.75;;;;;;;11.63;100.00;101101.94;4994121;28;20532;-70
2023/10/23 09:37:43;;;;;;;12.75;6.32;;;;;;;11.66;100.00;101098.22;4979367;28;20045;-70
2023/10/23 09:40:11;;;;;;;11.15;5.80;;;;;;;11.76;100.00;101091.50;4998230;28;20034;-71
2023/10/23 09:42:37;;;;;;;9.63;5.35;;;;;;;11.75;100.00;101102.25;4994750;28;20030;-70
2023/10/23 09:45:04;;;;;;;14.82;6.20;;;;;;;11.71;100.00;101094.41;4998134;28;20280;-69
2023/10/23 09:47:31;;;;;;;11.88;5.95;;;;;;;11.76;100.00;101094.16;4980874;28;20041;-70
2023/10/23 09:49:58;;;;;;;14.00;6.00;;;;;;;11.87;100.00;101098.97;4998795;28;20053;-70
2023/10/23 09:52:26;;;;;;;10.90;5.88;;;;;;;11.99;100.00;101102.78;4999957;28;20077;-70
2023/10/23 09:54:59;;;;;;;11.13;5.80;;;;;;;12.12;100.00;101094.09;4999817;28;20037;-69
2023/10/23 09:57:44;;;;;;;11.02;5.38;;;;;;;12.26;100.00;101098.66;4998792;28;20104;-70
2023/10/23 10:00:14;;;;;;;11.13;5.60;;;;;;;12.23;100.00;101092.63;4980757;28;20037;-70
2023/10/23 10:02:55;;;;;;;15.65;6.63;;;;;;;12.32;100.00;101097.47;4998355;28;20117;-71
2023/10/23 10:05:42;;;;;;;9.38;6.18;;;;;;;12.43;100.00;101100.44;4997843;28;20109;-71
2023/10/23 10:08:11;;;;;;;10.27;5.50;;;;;;;12.48;100.00;101093.03;4998727;28;20034;-70
2023/10/23 10:10:38;;;;;;;10.27;5.57;;;;;;;12.56;100.00;101087.28;4997785;28;20440;-71
2023/10/23 10:13:03;;;;;;;12.07;5.70;;;;;;;12.58;100.00;101075.56;4979902;28;20040;-70
2023/10/23 10:15:31;;;;;;;10.77;4.97;;;;;;;12.61;100.00;101085.19;4980432;28;20030;-70
2023/10/23 10:17:56;;;;;;;9.27;5.15;;;;;;;12.73;100.00;101089.84;5000224;28;20515;-68
2023/10/23 10:20:23;;;;;;;10.00;5.40;;;;;;;12.74;100.00;101075.53;5000586;28;20061;-70
2023/10/23 10:23:04;;;;;;;12.50;5.93;;;;;;;12.86;100.00;101072.19;4978422;28;20026;-70
2023/10/23 10:25:31;;;;;;;11.02;5.60;;;;;;;12.89;100.00;101074.69;4996756;28;20489;-70
2023/10/23 10:27:57;;;;;;;11.45;5.22;;;;;;;12.77;100.00;101063.84;4999665;28;20382;-70
2023/10/23 10:30:45;;;;;;;10.00;5.40;;;;;;;12.89;100.00;101069.34;4999448;28;20449;-69
2023/10/23 10:33:25;;;;;;;13.18;6.15;;;;;;;12.83;100.00;101066.16;5000251;28;20558;-70
2023/10/23 10:36:01;;;;;;;12.88;6.03;;;;;;;12.86;100.00;101064.16;4972753;28;20092;-69
2023/10/23 10:38:29;;;;;;;10.85;5.75;;;;;;;12.87;100.00;101060.53;4995384;28;20037;-69
2023/10/23 10:40:56;;;;;;;11.52;5.80;;;;;;;12.93;100.00;101049.53;4996504;28;20058;-71
2023/10/23 10:43:29;;;;;;;13.95;5.90;;;;;;;13.08;100.00;101049.56;5000922;28;20053;-69
2023/10/23 10:45:57;;;;;;;10.60;5.88;;;;;;;13.28;100.00;101049.31;4995207;28;20022;-68
2023/10/23 10:48:25;;;;;;;10.70;6.35;;;;;;;13.42;100.00;101043.16;4982066;28;20050;-68
2023/10/23 10:50:52;;;;;;;12.65;6.00;;;;;;;13.54;100.00;101045.09;4996929;28;20579;-70
2023/10/23 10:53:18;;;;;;;13.60;5.70;;;;;;;13.62;100.00;101031.25;4999273;28;20041;-71
2023/10/23 10:55:47;;;;;;;9.70;4.55;;;;;;;13.62;100.00;101017.88;4999325;28;20034;-69
2023/10/23 10:58:13;;;;;;;9.75;4.50;;;;;;;13.64;100.00;101016.84;4998617;28;20296;-70
2023/10/23 11:00:39;;;;;;;7.78;4.60;;;;;;;13.58;100.00;101008.31;4981085;28;20112;-70
2023/10/23 11:03:05;;;;;;;11.93;5.63;;;;;;;13.58;100.00;101005.66;4998736;28;20416;-70
2023/10/23 11:05:32;;;;;;;11.35;5.07;;;;;;;13.61;100.00;101011.66;4998346;28;20030;-70
2023/10/23 11:07:57;;;;;;;11.63;5.00;;;;;;;13.62;100.00;101002.69;4978493;28;20018;-70
2023/10/23 11:10:23;;;;;;;11.70;5.47;;;;;;;13.69;100.00;100992.50;4998434;28;20034;-70
2023/10/23 11:12:50;;;;;;;11.13;5.43;;;;;;;13.65;100.00;100991.81;4976509;28;20065;-70
2023/10/23 11:15:18;;;;;;;11.20;5.30;;;;;;;13.72;100.00;100986.97;4979057;28;20198;-69
2023/10/23 11:17:44;;;;;;;11.10;5.82;;;;;;;13.88;100.00;100976.16;4996221;28;20069;-70